Terminal Aerodrome Forecast
Issued by NWS Twin Cities, MN

Home | Current Version | Previous Version | Text Only | Print | Product List | Glossary Off
Versions: 1 2 3 4 5 6 7 8 9 10 11 12 13 14 15 16 17 18 19 20 21 22 23 24 25 26 27 28

689
FTUS43 KMPX 222128 AAA
TAFMSP
TAF AMD
KMSP 222128Z 2221/2324 10007KT P6SM SCT020 OVC040
     FM222300 09007KT 1 1/2SM -SN BR VV015
     FM230100 10008KT 1/2SM SN FZFG VV007
     FM230900 16004KT 6SM -SHSN OVC008
     FM231100 22005KT P6SM OVC015
     FM231500 27008KT P6SM BKN035=

USA.gov is the U.S. government's official web portal to all federal, state and local government web resources and services.